x

Buoy I01 - Eastern Maine Shelf (44034) Wave Buoy

12:04 - Thu 25th Dec 2014 All times are EST. -5 hours from GMT.

  • Sig Wave height 8.9ft
  • Peak Period 8s
  • Wind
    25mph, 29mph gusts
  • Sea Temp 47°f
  • Air Temp 51°f
  • Sea Pressure 994.6mb
  • Buoy I01 - Eastern Maine Shelf
  • Buoy I01 - Eastern Maine Shelf

More Historic Weather Station data

Upgrade to MSW Pro to gain access to the past 30 days of data for over 8000 Wavebouys and Weather Stations around the globe.

Join Pro

Comparision Forecast

View Surf forecast
   
jeu. 12/25 12:04 9ft 8s 25 29 mph 994.6mb 47f 51f
11:04 8ft 8s 22 27 mph 994.8mb 47f 52f
10:04 9ft 8s 22 27 mph 996.2mb 47f 52f
9:04 9.5ft 8s 22 27 mph 995.4mb 47f 52f
8:04 9ft 8s 25 29 mph 996.3mb 47f 52f
7:04 8ft 8s 22 25 mph 997.3mb 47f 52f
6:04  -   -  18 22 mph 998mb - 52f
5:04 7ft 8s 20 22 mph 998.5mb 47f 53f
4:04 6ft 6s 20 25 mph 998.4mb 47f 53f
3:04 6ft 6s 25 29 mph 999mb 48f 54f
2:04 7ft 6s 25 29 mph 999.5mb 48f 54f
1:04 6ft 5s 25 29 mph 1000.3mb 48f 54f
12:04 5ft 5s 20 25 mph 1001.2mb 48f 53f
mer. 12/24 11:04 5ft 5s 22 27 mph 1002.6mb 48f 53f
10:04 5ft 5s 25 31 mph 1003.7mb 48f 53f
9:04 5ft 8s 20 25 mph 1005.3mb 48f 51f
8:04 3.5ft 5s 16 18 mph 1007.4mb 48f 50f
7:04 4.5ft 8s 16 18 mph 1009.2mb 47f 50f
6:04  -   -  13 16 mph 1010mb - 49f
4:04 5ft 6s 13 16 mph 1012.1mb 47f 47f
3:04 4.5ft 8s 18 20 mph 1012.4mb 47f 46f
2:04 5ft 6s 16 18 mph 1013.7mb 48f 46f
1:04 5ft 5s 13 18 mph 1014.8mb 48f 46f
12:04 5ft 8s 18 20 mph 1015.6mb 48f 45f
11:04 5ft 6s 18 22 mph 1016.5mb 48f 44f
10:04 5ft 5s 18 20 mph 1017.8mb 48f 44f
9:04 5ft 8s 18 22 mph 1018.8mb 48f 44f
6:04 5.5ft 6s 18 22 mph 1020.7mb 48f 43f
5:04 6ft 8s 22 29 mph 1020.2mb 48f 43f
4:04 7ft 8s 20 22 mph 1021mb 48f 43f
3:04 8ft 8s 22 25 mph 1021.3mb 48f 43f
2:04 8ft 8s 20 22 mph 1022.4mb 48f 44f
1:04 6.5ft 8s 20 22 mph 1021.9mb 48f 44f
12:04 6.5ft 8s 20 25 mph 1022.2mb 48f 44f
mar. 12/23 11:04  -   -  20 25 mph 1022.3mb - 43f
9:04 6.5ft 6s 18 22 mph 1023.8mb 48f 43f
8:04 6ft 6s 20 22 mph 1023.6mb 48f 43f
7:04 6.5ft 6s 20 22 mph 1024.2mb 48f 42f
6:04 6ft 5s 20 22 mph 1024.6mb 48f 42f
5:04 6ft 6s 20 25 mph 1024.4mb 48f 43f
4:04 5.5ft 6s 22 25 mph 1024.3mb 48f 42f
9:04 5ft 6s 20 22 mph 1028.4mb 48f 39f
8:04 5.5ft 6s 18 22 mph 1028.1mb 48f 39f
7:04 6ft 5s 22 27 mph 1027.4mb 48f 41f
6:04 5ft 6s 20 25 mph 1028.1mb 48f 41f
5:04 5ft 5s 20 25 mph 1027.4mb 47f 41f
4:04 5ft 6s 20 25 mph 1027.4mb 48f 41f
3:04 4.5ft 5s 20 25 mph 1027.7mb 48f 41f
2:04 4ft 5s 18 22 mph 1027.5mb 48f 41f
1:04 4ft 5s 18 22 mph 1027.3mb 48f 41f
12:04 3.5ft 5s 18 22 mph 1027.5mb 48f 42f
lun. 12/22 11:04 3.5ft 4s 16 20 mph 1027.9mb 48f 42f
10:04 3.5ft 5s 16 20 mph 1027.7mb 48f 42f
9:04 2.5ft 4s 16 18 mph 1028mb 48f 42f
8:04 3ft 4s 13 18 mph 1028.3mb 48f 42f
7:04 3ft 8s 13 18 mph 1028.9mb 48f 42f
6:04 3.5ft 8s 16 18 mph 1028.7mb 48f 42f
5:04 2.5ft 8s 7 11 mph 1028.7mb 48f 40f
4:04 2.5ft 8s 9 13 mph 1028.7mb 48f 40f
3:04 2ft 6s 9 11 mph 1028.3mb 48f 41f
2:04 2.5ft 6s 11 13 mph 1027.8mb 48f 41f
1:04 2.5ft 6s 11 16 mph 1027.7mb 48f 40f
12:04 2ft 5s 11 13 mph 1028.2mb 48f 40f
11:04 2.5ft 4s 11 13 mph 1028.7mb 48f 40f
10:04 2.5ft 6s 11 16 mph 1029.3mb 48f 39f
9:04 2.5ft 4s 13 16 mph 1029.1mb 48f 39f
8:04 2.5ft 4s 13 16 mph 1029mb 48f 39f
7:04 2.5ft 8s 13 18 mph 1028.7mb 48f 39f
6:04 2.5ft 6s 16 18 mph 1028mb 48f 39f
5:04 2.5ft 5s 13 18 mph 1027.7mb 48f 39f
4:04 2.5ft 6s 16 18 mph 1027.8mb 48f 39f
3:04 2.5ft 6s 16 18 mph 1027.7mb 48f 39f
2:04 2.5ft 5s 13 18 mph 1027.9mb 48f 38f
1:04 2.5ft 5s 16 18 mph 1027.3mb 48f 37f
12:04 2.5ft 3s 16 18 mph 1027.4mb 48f 38f
dim. 12/21 11:04 2.5ft 4s 13 16 mph 1027.4mb 48f 37f
10:04 2.5ft 5s 13 16 mph 1027.1mb 49f 38f
9:04 2.5ft 4s 13 16 mph 1026.6mb 49f 38f
8:04 2.5ft 4s 13 16 mph 1026.6mb 49f 38f
7:04 2.5ft 4s 13 16 mph 1026.7mb 49f 39f